Latest Weather Observations for Weipa

IDQ60801

Issued at 4:32 pm EST Thursday 24 August 2017 (issued every 30 minutes, with the page automatically refreshed every 10 minutes)

About weather observations | Map of weather stations | Latest weather observations for QLD | Other Formats
Station Details ID: 027045 Name: WEIPA AERO Lat: -12.68 Lon: 141.92 Height: 17.96 m
Data from the previous 72 hours. | See also: Recent months at Weipa
Date/Time
EST
Temp
°C
App
Temp
°C
Dew
Point
°C
Rel
Hum
%
Delta-T
°C
Wind Press
QNH
hPa
Press
MSL
hPa
Rain since
9am
mm
Dir  Spd
km/h
Gust
km/h
Spd
kts
Gust
kts
24/04:30pm 28.1 28.0 18.8 57 6.0 WSW 17 26 9 14 1010.8 1010.7 0.2
24/04:00pm 29.8 30.2 18.9 52 7.1 W 15 24 8 13 1010.7 1010.6 0.2
24/03:30pm 30.1 30.3 18.5 49 7.5 W 15 24 8 13 1010.6 1010.5 0.2
24/03:00pm 31.1 31.9 19.1 48 7.8 WSW 13 22 7 12 1010.9 1010.8 0.2
24/02:30pm 31.4 29.5 14.1 35 10.5 SSE 17 22 9 12 1011.3 1011.2 0.2
24/02:00pm 31.8 29.8 14.0 34 10.8 ESE 17 24 9 13 1011.9 1011.8 0.2
24/01:30pm 31.7 29.2 13.5 33 11.0 SE 19 30 10 16 1012.4 1012.3 0.2
24/01:00pm 31.4 30.4 14.5 35 10.3 ESE 13 20 7 11 1012.9 1012.8 0.2
24/12:30pm 31.2 30.2 15.6 39 9.7 SE 15 30 8 16 1013.4 1013.3 0.2
24/12:00pm 29.9 28.2 14.8 39 9.2 E 17 28 9 15 1014.1 1014.0 0.2
24/11:30am 28.9 27.6 15.8 45 8.1 E 17 28 9 15 1014.5 1014.4 0.2
24/11:00am 28.5 27.1 17.1 50 7.2 E 20 28 11 15 1015.0 1014.9 0.2
24/10:30am 26.8 26.2 18.4 60 5.3 E 19 28 10 15 1015.3 1015.2 0.2
24/10:00am 26.0 24.8 17.1 58 5.5 E 19 26 10 14 1015.7 1015.6 0.0
24/09:30am 25.4 24.3 17.3 61 5.0 ESE 19 24 10 13 1015.9 1015.8 0.0
24/09:00am 24.2 23.5 17.4 65 4.2 SE 17 22 9 12 1016.0 1015.9 0.0
24/08:30am 23.0 23.7 17.9 73 3.2 SE 11 15 6 8 1016.0 1015.9 0.0
24/08:00am 21.2 21.7 17.4 79 2.3 SE 11 17 6 9 1015.9 1015.8 0.0
24/07:41am 20.7 21.3 17.7 83 1.8 SE 11 15 6 8 1015.8 1015.7 0.0
24/07:30am 20.2 21.1 17.6 85 1.6 SE 9 13 5 7 1015.7 1015.6 0.0
24/07:00am 19.3 20.1 17.4 89 1.2 SE 9 11 5 6 1015.5 1015.4 0.0
24/06:30am 18.9 20.0 17.0 89 1.1 SE 7 11 4 6 1015.2 1015.1 0.0
24/06:00am 19.1 19.8 17.1 88 1.2 SE 9 9 5 5 1015.2 1015.1 0.0
24/05:44am 19.1 20.2 17.1 88 1.2 SE 7 11 4 6 1014.9 1014.8 0.0
24/05:30am 19.3 20.1 17.3 88 1.2 SE 9 11 5 6 1014.8 1014.7 0.0
24/05:00am 19.2 20.3 17.2 88 1.2 SSE 7 11 4 6 1014.8 1014.7 0.0
24/04:41am 19.1 20.1 16.9 87 1.3 SSE 7 9 4 5 1014.8 1014.7 0.0
24/04:30am 19.0 20.0 16.8 87 1.3 SSE 7 9 4 5 1014.7 1014.6 0.0
24/04:00am 19.2 20.4 16.8 86 1.4 SSE 6 7 3 4 1014.9 1014.8 0.0
24/03:31am 19.4 20.5 17.0 86 1.5 SSE 7 11 4 6 1014.9 1014.8 0.0
24/03:30am 19.5 20.6 17.1 86 1.5 SSE 7 11 4 6 1014.9 1014.8 0.0
24/03:00am 19.1 20.5 16.5 85 1.6 SSE 4 9 2 5 1015.0 1014.9 0.0
24/02:51am 19.1 21.2 16.3 84 1.7 CALM 0 4 0 2 1015.0 1014.9 0.0
24/02:30am 19.2 21.2 16.1 82 1.8 CALM 0 2 0 1 1015.1 1015.0 0.0
24/02:04am 19.2 19.9 16.2 83 1.8 SSE 7 9 4 5 1015.2 1015.1 0.0
24/02:00am 19.2 19.9 16.1 82 1.8 S 7 9 4 5 1015.2 1015.1 0.0
24/01:31am 19.9 22.2 16.7 82 1.9 CALM 0 6 0 3 1015.4 1015.3 0.0
24/01:30am 19.9 22.1 16.5 81 2.0 CALM 0 0 0 0 1015.4 1015.3 0.0
24/01:00am 20.0 22.1 16.2 79 2.3 CALM 0 0 0 0 1015.6 1015.5 0.0
24/12:49am 20.2 22.4 16.4 79 2.3 CALM 0 2 0 1 1015.7 1015.6 0.0
24/12:32am 20.6 22.7 16.2 76 2.6 CALM 0 0 0 0 1015.7 1015.6 0.0
24/12:30am 20.7 22.8 16.3 76 2.7 CALM 0 0 0 0 1015.7 1015.6 0.0
24/12:00am 21.9 22.7 16.4 71 3.3 E 7 9 4 5 1015.8 1015.7 0.0
 
Date/Time
EST
Temp
°C
App
Temp
°C
Dew
Point
°C
Rel
Hum
%
Delta-T
°C
Wind Press
QNH
hPa
Press
MSL
hPa
Rain since
9am
mm
Dir  Spd
km/h
Gust
km/h
Spd
kts
Gust
kts
23/11:30pm 22.3 22.7 16.3 69 3.6 E 9 13 5 7 1015.9 1015.8 0.0
23/11:00pm 22.8 23.1 15.9 65 4.2 ENE 9 13 5 7 1015.8 1015.7 0.0
23/10:30pm 23.2 22.5 15.5 62 4.6 ENE 13 17 7 9 1015.7 1015.6 0.0
23/10:00pm 23.8 22.4 15.6 60 4.9 ENE 17 22 9 12 1015.7 1015.6 0.0
23/09:30pm 24.4 22.8 15.1 56 5.6 E 17 20 9 11 1015.5 1015.4 0.0
23/09:00pm 25.0 23.3 14.8 53 6.1 E 17 22 9 12 1015.3 1015.2 0.0
23/08:30pm 25.6 23.7 14.1 49 6.8 E 17 20 9 11 1015.1 1015.0 0.0
23/08:00pm 26.5 23.2 13.9 45 7.5 E 24 33 13 18 1014.7 1014.6 0.0
23/07:30pm 27.2 24.8 13.9 44 7.9 E 19 22 10 12 1014.2 1014.1 0.0
23/07:00pm 28.1 24.8 14.0 42 8.4 E 24 30 13 16 1013.6 1013.5 0.0
23/06:30pm 28.8 25.9 13.9 40 8.9 E 22 32 12 17 1013.1 1013.0 0.0
23/06:00pm 30.0 27.3 12.9 35 10.1 E 19 24 10 13 1012.7 1012.6 0.0
23/05:30pm 31.2 28.3 13.0 33 10.8 E 20 28 11 15 1012.3 1012.2 0.0
23/05:00pm 31.7 27.9 12.5 31 11.4 E 24 39 13 21 1012.0 1011.9 0.0
23/04:30pm 32.6 28.2 12.8 30 11.8 E 28 39 15 21 1011.8 1011.7 0.0
23/04:00pm 32.9 29.4 13.5 30 11.7 E 24 37 13 20 1011.7 1011.6 0.0
23/03:30pm 32.7 28.8 13.4 31 11.6 E 26 44 14 24 1011.7 1011.6 0.0
23/03:00pm 32.9 29.4 13.5 30 11.7 E 24 35 13 19 1012.0 1011.9 0.0
23/02:30pm 32.5 28.7 13.7 32 11.4 E 26 32 14 17 1012.4 1012.3 0.0
23/02:00pm 32.8 29.5 13.9 31 11.5 ESE 24 39 13 21 1012.8 1012.7 0.0
23/01:38pm 32.4 28.5 14.5 33 11.0 ESE 28 50 15 27 1013.0 1012.9 0.0
23/01:30pm 32.6 29.0 14.2 32 11.2 E 26 43 14 23 1013.3 1013.2 0.0
23/01:00pm 31.8 28.8 14.9 36 10.4 ESE 24 37 13 20 1013.8 1013.7 0.0
23/12:30pm 31.3 28.0 14.9 37 10.1 E 26 37 14 20 1014.2 1014.1 0.0
23/12:00pm 30.9 27.8 15.7 39 9.4 E 26 37 14 20 1014.7 1014.6 0.0
23/11:30am 29.0 25.9 15.5 44 8.3 E 26 37 14 20 1015.3 1015.2 0.0
23/11:00am 28.7 26.3 16.3 47 7.7 E 24 37 13 20 1015.7 1015.6 0.0
23/10:30am 28.1 24.4 16.1 48 7.4 E 30 37 16 20 1016.1 1016.0 0.0
23/10:00am 27.6 25.3 16.6 51 6.8 E 24 37 13 20 1016.3 1016.2 0.0
23/09:30am 25.2 23.3 17.7 63 4.7 E 24 33 13 18 1016.6 1016.5 0.0
23/09:00am 24.6 24.4 18.5 69 3.9 ESE 17 24 9 13 1016.5 1016.4 0.0
23/08:30am 23.1 23.5 18.2 74 3.1 ESE 13 17 7 9 1016.4 1016.3 0.0
23/08:00am 21.3 22.2 17.5 79 2.3 SSE 9 13 5 7 1016.2 1016.1 0.0
23/07:30am 19.8 20.5 17.0 84 1.7 SSE 9 11 5 6 1016.1 1016.0 0.0
23/07:12am 19.0 20.1 17.0 88 1.2 SE 7 11 4 6 1016.0 1015.9 0.0
23/07:00am 18.3 19.2 16.5 89 1.1 SSE 7 9 4 5 1015.8 1015.7 0.0
23/06:49am 18.1 18.9 16.3 89 1.1 SSE 7 9 4 5 1015.8 1015.7 0.0
23/06:30am 18.0 18.9 16.2 89 1.1 SE 6 9 3 5 1015.7 1015.6 0.0
23/06:00am 18.3 19.1 16.3 88 1.2 SE 7 9 4 5 1015.4 1015.3 0.0
23/05:46am 18.4 19.3 16.6 89 1.1 SE 7 9 4 5 1015.3 1015.2 0.0
23/05:31am 18.3 19.2 16.5 89 1.1 SE 7 11 4 6 1015.3 1015.2 0.0
23/05:30am 18.3 19.2 16.5 89 1.1 SE 7 11 4 6 1015.3 1015.2 0.0
23/05:00am 18.1 20.1 15.9 87 1.3 CALM 0 0 0 0 1015.1 1015.0 0.0
23/04:30am 18.6 20.8 16.4 87 1.3 CALM 0 0 0 0 1015.1 1015.0 0.0
23/04:00am 18.7 21.0 16.7 88 1.2 CALM 0 0 0 0 1015.1 1015.0 0.0
23/03:54am 18.6 20.8 16.6 88 1.2 CALM 0 0 0 0 1015.1 1015.0 0.0
23/03:37am 18.6 20.8 16.4 87 1.3 CALM 0 0 0 0 1015.0 1014.9 0.0
23/03:30am 18.6 20.8 16.4 87 1.3 CALM 0 4 0 2 1015.0 1014.9 0.0
23/03:00am 18.9 19.8 16.1 84 1.7 SSE 6 7 3 4 1015.1 1015.0 0.0
23/02:30am 19.1 20.1 16.3 84 1.7 SSE 6 6 3 3 1015.3 1015.2 0.0
23/02:00am 19.4 20.3 16.1 81 2.0 SE 6 7 3 4 1015.6 1015.5 0.0
23/01:30am 19.8 20.5 16.1 79 2.2 S 7 9 4 5 1015.9 1015.8 0.0
23/01:29am 19.8 20.4 15.9 78 2.3 S 7 9 4 5 1016.0 1015.9 0.0
23/01:12am 20.4 21.1 16.0 76 2.6 ESE 7 9 4 5 1016.1 1016.0 0.0
23/01:00am 20.9 21.7 16.3 75 2.8 E 7 11 4 6 1016.1 1016.0 0.0
23/12:30am 21.5 22.0 16.5 73 3.0 E 9 15 5 8 1016.3 1016.2 0.0
23/12:00am 21.5 22.4 16.0 71 3.3 E 6 7 3 4 1016.4 1016.3 0.0
 
Date/Time
EST
Temp
°C
App
Temp
°C
Dew
Point
°C
Rel
Hum
%
Delta-T
°C
Wind Press
QNH
hPa
Press
MSL
hPa
Rain since
9am
mm
Dir  Spd
km/h
Gust
km/h
Spd
kts
Gust
kts
22/11:30pm 22.1 23.0 16.1 69 3.6 SE 6 9 3 5 1016.5 1016.4 0.0
22/11:00pm 22.9 23.3 16.2 66 4.1 E 9 13 5 7 1016.5 1016.4 0.0
22/10:30pm 23.4 22.6 16.2 64 4.4 E 15 20 8 11 1016.5 1016.4 0.0
22/10:00pm 24.0 22.8 16.0 61 4.9 E 17 22 9 12 1016.3 1016.2 0.0
22/09:30pm 24.4 23.3 15.3 57 5.5 E 15 19 8 10 1015.8 1015.7 0.0
22/09:00pm 25.0 23.8 15.0 53 6.0 E 15 19 8 10 1015.4 1015.3 0.0
22/08:30pm 25.7 24.4 14.8 51 6.5 ENE 15 20 8 11 1015.1 1015.0 0.0
22/08:00pm 26.4 24.5 14.2 47 7.3 ENE 17 24 9 13 1014.6 1014.5 0.0
22/07:30pm 27.1 25.3 14.5 46 7.6 ENE 17 24 9 13 1014.1 1014.0 0.0
22/07:00pm 27.9 26.0 14.2 43 8.2 ENE 17 24 9 13 1013.6 1013.5 0.0
22/06:30pm 28.9 26.5 12.8 37 9.5 ENE 17 22 9 12 1013.1 1013.0 0.0
22/06:00pm 30.2 26.7 12.1 32 10.6 E 22 28 12 15 1012.6 1012.5 0.0
22/05:30pm 31.4 28.3 12.2 30 11.3 E 20 28 11 15 1012.2 1012.1 0.0
22/05:00pm 31.8 27.9 12.1 30 11.6 ENE 24 33 13 18 1011.9 1011.8 0.0
22/04:30pm 32.2 28.6 11.9 29 11.9 E 22 35 12 19 1011.8 1011.7 0.0
22/04:00pm 32.4 28.7 11.6 28 12.2 ESE 22 28 12 15 1011.8 1011.7 0.0
22/03:30pm 32.3 29.1 12.0 29 12.0 ESE 20 32 11 17 1011.8 1011.7 0.0
22/03:00pm 32.5 28.6 12.2 29 12.0 E 24 33 13 18 1011.8 1011.7 0.0
22/02:30pm 32.6 28.8 12.3 29 12.0 ESE 24 33 13 18 1012.2 1012.1 0.0
22/02:00pm 31.6 28.2 12.4 31 11.4 ESE 22 41 12 22 1012.6 1012.5 0.0
22/01:30pm 31.4 28.6 13.2 33 10.9 ESE 20 32 11 17 1012.9 1012.8 0.0
22/01:00pm 31.0 27.7 12.8 32 10.8 ESE 22 32 12 17 1013.3 1013.2 0.0
22/12:30pm 31.0 27.1 13.3 34 10.6 E 26 41 14 22 1013.8 1013.7 0.0
22/12:00pm 30.0 26.6 13.7 37 9.8 ESE 24 35 13 19 1014.3 1014.2 0.0
22/11:30am 28.7 25.3 13.8 40 8.9 ESE 24 33 13 18 1014.9 1014.8 0.0
22/11:00am 27.2 25.1 14.6 46 7.6 ESE 19 28 10 15 1015.2 1015.1 0.0
22/10:30am 27.0 24.2 15.4 49 7.1 ESE 24 37 13 20 1015.4 1015.3 0.0
22/10:00am 25.7 22.8 15.1 52 6.4 E 24 37 13 20 1015.7 1015.6 0.0
22/09:30am 24.0 22.3 15.8 60 5.0 E 19 24 10 13 1016.0 1015.9 0.0
22/09:00am 23.0 21.7 15.8 64 4.3 ESE 17 28 9 15 1016.3 1016.2 0.0
22/08:30am 21.8 21.4 16.3 71 3.3 ESE 13 17 7 9 1016.1 1016.0 0.0
22/08:00am 19.5 21.6 16.3 82 1.9 CALM 0 6 0 3 1016.0 1015.9 0.0
22/07:30am 17.6 18.2 15.8 89 1.1 SSE 7 9 4 5 1015.8 1015.7 0.0
22/07:00am 16.2 16.4 14.7 91 0.9 SSE 7 9 4 5 1015.5 1015.4 0.0
22/06:30am 16.3 17.7 14.5 89 1.0 CALM 0 6 0 3 1015.2 1015.1 0.0
22/06:00am 16.5 17.9 14.5 88 1.1 CALM 0 0 0 0 1015.1 1015.0 0.0
22/05:30am 17.0 17.7 15.5 91 0.9 SSE 6 7 3 4 1014.8 1014.7 0.0
22/05:00am 16.8 18.4 14.8 88 1.2 CALM 0 0 0 0 1014.7 1014.6 0.0
22/04:30am 17.3 17.6 15.1 87 1.3 S 7 9 4 5 1014.6 1014.5 0.0
22/04:00am 17.6 19.3 15.2 86 1.4 CALM 0 0 0 0 1014.5 1014.4 0.0
22/03:30am 18.1 19.1 15.4 84 1.6 SSE 4 9 2 5 1014.4 1014.3 0.0
22/03:00am 18.6 19.2 15.7 83 1.7 SE 7 9 4 5 1014.4 1014.3 0.0
22/02:30am 18.9 19.0 15.6 81 1.9 SSE 9 11 5 6 1014.5 1014.4 0.0
22/02:00am 19.2 19.5 15.9 81 2.0 ESE 9 13 5 7 1014.6 1014.5 0.0
22/01:30am 19.5 20.0 15.6 78 2.3 SE 7 11 4 6 1015.1 1015.0 0.0
22/01:00am 19.9 20.0 15.5 76 2.6 ESE 9 9 5 5 1015.4 1015.3 0.0
22/12:30am 20.4 20.9 15.6 74 2.9 SE 7 9 4 5 1015.8 1015.7 0.0
22/12:00am 21.2 21.3 15.5 70 3.4 E 9 11 5 6 1016.0 1015.9 0.0
 
Date/Time
EST
Temp
°C
App
Temp
°C
Dew
Point
°C
Rel
Hum
%
Delta-T
°C
Wind Press
QNH
hPa
Press
MSL
hPa
Rain since
9am
mm
Dir  Spd
km/h
Gust
km/h
Spd
kts
Gust
kts
21/11:30pm 21.8 21.2 15.6 68 3.7 E 13 17 7 9 1016.1 1016.0 0.0
21/11:00pm 22.1 21.1 15.7 67 3.8 E 15 20 8 11 1016.1 1016.0 0.0
21/10:30pm 22.5 21.1 15.6 65 4.1 E 17 24 9 13 1016.1 1016.0 0.0
21/10:00pm 23.0 20.7 15.6 63 4.4 E 22 30 12 16 1016.0 1015.9 0.0
21/09:30pm 23.5 20.3 15.3 60 4.9 E 26 37 14 20 1015.8 1015.7 0.0
21/09:00pm 24.2 21.2 14.9 56 5.5 E 24 33 13 18 1015.5 1015.4 0.0
21/08:30pm 24.7 21.9 14.2 52 6.2 E 22 28 12 15 1014.8 1014.7 0.0
21/08:00pm 25.3 22.9 14.4 50 6.5 E 20 26 11 14 1014.3 1014.2 0.0
21/07:30pm 25.7 23.8 14.2 49 6.8 E 17 20 9 11 1013.7 1013.6 0.0
21/07:00pm 26.5 24.8 14.6 48 7.1 ENE 17 22 9 12 1013.3 1013.2 0.0
21/06:30pm 27.3 25.0 14.0 44 7.9 ENE 19 28 10 15 1012.7 1012.6 0.0
21/06:00pm 28.6 26.0 13.7 40 8.9 E 20 26 11 14 1012.2 1012.1 0.0
21/05:30pm 29.4 26.1 14.0 39 9.3 ENE 24 32 13 17 1011.8 1011.7 0.0
21/05:00pm 30.3 26.5 13.6 36 10.0 ESE 26 33 14 18 1011.6 1011.5 0.0

Other Formats:

Comma delimited format used in spreadsheet applications
http://www.bom.gov.au/fwo/IDQ60801/IDQ60801.94170.axf

JavaScript Object Notation format (JSON) in row-major order
http://www.bom.gov.au/fwo/IDQ60801/IDQ60801.94170.json